createdAt,value
2022-09-14T00:00:23.227Z,12.86
2022-09-14T00:01:26.226Z,12.83
2022-09-14T00:02:23.380Z,12.83
2022-09-14T00:03:23.244Z,12.79
2022-09-14T00:04:23.198Z,12.77
2022-09-14T00:05:23.168Z,12.73
2022-09-14T00:06:23.156Z,12.80
2022-09-14T00:07:23.151Z,12.76
2022-09-14T00:08:23.137Z,12.79
2022-09-14T00:09:23.165Z,12.76
2022-09-14T00:10:23.138Z,12.76
2022-09-14T00:11:23.116Z,12.71
2022-09-14T00:12:23.105Z,12.63
2022-09-14T00:13:31.360Z,12.69
2022-09-14T00:14:23.190Z,12.68
2022-09-14T00:15:32.058Z,12.77
2022-09-14T00:16:30.748Z,12.71
2022-09-14T00:17:23.150Z,12.68
2022-09-14T00:18:23.122Z,12.76
2022-09-14T00:19:23.082Z,12.69
2022-09-14T00:20:23.170Z,12.68
2022-09-14T00:21:23.041Z,12.69
2022-09-14T00:22:22.989Z,12.65
2022-09-14T00:23:22.987Z,12.73
2022-09-14T00:24:22.983Z,12.68
2022-09-14T00:25:22.980Z,12.63
2022-09-14T00:26:22.974Z,12.71
2022-09-14T00:27:22.961Z,12.71
2022-09-14T00:28:22.937Z,12.68
2022-09-14T00:29:22.923Z,12.71
2022-09-14T00:30:22.923Z,12.58
2022-09-14T00:31:22.958Z,12.68
2022-09-14T00:32:22.907Z,12.63
2022-09-14T00:33:22.888Z,12.63
2022-09-14T00:34:22.869Z,12.62
2022-09-14T00:35:22.856Z,12.66
2022-09-14T00:36:22.871Z,12.61
2022-09-14T00:37:22.829Z,12.59
2022-09-14T00:38:22.823Z,12.50
2022-09-14T00:39:22.871Z,12.58
2022-09-14T00:40:22.839Z,12.61
2022-09-14T00:41:22.809Z,12.51
2022-09-14T00:42:22.799Z,12.58
2022-09-14T00:43:22.776Z,12.51
2022-09-14T00:44:22.770Z,12.51
2022-09-14T00:45:22.856Z,12.58
2022-09-14T00:46:22.735Z,12.53
2022-09-14T00:47:22.737Z,12.55
2022-09-14T00:48:22.726Z,12.51
2022-09-14T00:49:22.714Z,12.55
2022-09-14T00:50:22.696Z,12.53
2022-09-14T00:51:22.700Z,12.54
2022-09-14T00:52:22.733Z,12.69
2022-09-14T00:53:22.681Z,12.72
2022-09-14T00:54:22.664Z,12.79
2022-09-14T00:55:22.653Z,12.68
2022-09-14T00:56:22.636Z,12.77
2022-09-14T00:57:22.727Z,12.71
2022-09-14T00:58:22.638Z,12.58
2022-09-14T00:59:22.608Z,12.72
2022-09-14T01:00:22.586Z,12.73
2022-09-14T01:01:22.743Z,12.68
2022-09-14T01:02:22.643Z,12.73
2022-09-14T01:03:22.581Z,12.72
2022-09-14T01:04:22.557Z,12.76
2022-09-14T01:05:22.537Z,12.77
2022-09-14T01:06:22.543Z,12.73
2022-09-14T01:07:22.514Z,12.76
2022-09-14T01:08:22.526Z,12.68
2022-09-14T01:09:22.492Z,12.72
2022-09-14T01:10:22.483Z,12.72
2022-09-14T01:11:22.483Z,12.65
2022-09-14T01:12:22.468Z,12.66
2022-09-14T01:13:22.461Z,12.61
2022-09-14T01:14:22.465Z,12.63
2022-09-14T01:15:22.438Z,12.59
2022-09-14T01:16:22.486Z,12.59
2022-09-14T01:17:22.406Z,12.55
2022-09-14T01:18:22.422Z,12.58
2022-09-14T01:19:22.405Z,12.47
2022-09-14T01:20:22.394Z,12.48
2022-09-14T01:21:22.375Z,12.46
2022-09-14T01:22:22.361Z,12.48
2022-09-14T01:23:22.341Z,12.43
2022-09-14T01:24:22.340Z,12.41
2022-09-14T01:25:22.348Z,12.36
2022-09-14T01:26:22.328Z,12.43
2022-09-14T01:27:22.321Z,12.44
2022-09-14T01:28:22.290Z,12.41
2022-09-14T01:29:22.296Z,12.53
2022-09-14T01:30:22.275Z,12.44
2022-09-14T01:31:22.394Z,12.50
2022-09-14T01:32:22.247Z,12.48
2022-09-14T01:33:22.238Z,12.54
2022-09-14T01:34:22.238Z,12.48
2022-09-14T01:35:22.225Z,12.44
2022-09-14T01:36:22.204Z,12.40
2022-09-14T01:37:22.237Z,12.29
2022-09-14T01:38:22.189Z,12.47
2022-09-14T01:39:22.176Z,12.33
2022-09-14T01:40:22.244Z,12.38
2022-09-14T01:41:22.148Z,12.35
2022-09-14T01:42:22.148Z,12.30
2022-09-14T01:43:22.156Z,12.47
2022-09-14T01:44:22.127Z,12.40
2022-09-14T01:45:22.197Z,12.33
2022-09-14T01:46:22.100Z,12.35
2022-09-14T01:47:22.087Z,12.30
2022-09-14T01:48:22.085Z,12.30
2022-09-14T01:49:22.083Z,12.40
2022-09-14T01:50:22.055Z,12.28
2022-09-14T01:51:22.043Z,12.35
2022-09-14T01:52:22.035Z,12.33
2022-09-14T01:53:22.051Z,12.30
2022-09-14T01:54:22.013Z,12.38
2022-09-14T01:55:22.015Z,12.33
2022-09-14T01:56:22.001Z,12.32
2022-09-14T01:57:21.990Z,12.26
2022-09-14T01:58:21.978Z,12.18
2022-09-14T01:59:21.977Z,12.22
2022-09-14T02:00:21.952Z,12.35
2022-09-14T02:01:22.037Z,12.33
2022-09-14T02:02:21.967Z,12.28
2022-09-14T02:03:21.919Z,12.36
2022-09-14T02:04:21.913Z,12.28
2022-09-14T02:05:21.920Z,12.33
2022-09-14T02:06:21.884Z,12.28
2022-09-14T02:07:21.876Z,12.21
2022-09-14T02:08:21.878Z,12.40
2022-09-14T02:09:21.861Z,12.36
2022-09-14T02:10:21.849Z,12.35
2022-09-14T02:11:21.845Z,12.33
2022-09-14T02:12:21.817Z,12.17
2022-09-14T02:13:21.814Z,12.25
2022-09-14T02:14:21.839Z,12.23
2022-09-14T02:15:21.806Z,12.17
2022-09-14T02:16:21.861Z,12.10
2022-09-14T02:17:21.770Z,12.08
2022-09-14T02:18:21.841Z,12.10
2022-09-14T02:19:23.788Z,12.08
2022-09-14T02:20:21.758Z,12.04
2022-09-14T02:21:21.738Z,12.04
2022-09-14T02:22:29.385Z,11.89
2022-09-14T02:23:21.780Z,11.87
2022-09-14T02:24:30.420Z,11.93
2022-09-14T02:25:30.327Z,11.84
2022-09-14T02:26:21.755Z,11.96
2022-09-14T02:27:21.773Z,11.99
2022-09-14T02:28:21.714Z,11.99
2022-09-14T02:29:21.735Z,11.96
2022-09-14T02:30:21.651Z,11.96
2022-09-14T02:31:21.682Z,11.99
2022-09-14T02:32:21.641Z,11.99
2022-09-14T02:33:21.605Z,12.04
2022-09-14T02:34:21.609Z,12.03
2022-09-14T02:35:21.588Z,12.04
2022-09-14T02:36:21.567Z,12.13
2022-09-14T02:37:21.553Z,12.32
2022-09-14T02:38:21.561Z,12.35
2022-09-14T02:39:21.543Z,12.22
2022-09-14T02:40:21.602Z,12.22
2022-09-14T02:41:21.521Z,12.18
2022-09-14T02:42:21.518Z,12.04
2022-09-14T02:43:21.485Z,12.11
2022-09-14T02:44:21.480Z,11.99
2022-09-14T02:45:21.487Z,11.99
2022-09-14T02:46:21.523Z,11.96
2022-09-14T02:47:21.466Z,11.96
2022-09-14T02:48:21.441Z,11.89
2022-09-14T02:49:21.428Z,11.87
2022-09-14T02:50:21.441Z,11.93
2022-09-14T02:51:21.410Z,12.03
2022-09-14T02:52:21.398Z,12.07
2022-09-14T02:53:21.394Z,12.10
2022-09-14T02:54:21.367Z,12.11
2022-09-14T02:55:21.377Z,12.11
2022-09-14T02:56:21.361Z,12.15
2022-09-14T02:57:21.342Z,12.23
2022-09-14T02:58:21.350Z,12.14
2022-09-14T02:59:21.313Z,12.11
2022-09-14T03:00:21.316Z,12.13
2022-09-14T03:01:21.420Z,12.08
2022-09-14T03:02:21.393Z,12.10
2022-09-14T03:03:21.286Z,12.08
2022-09-14T03:04:21.271Z,12.05
2022-09-14T03:05:21.253Z,12.07
2022-09-14T03:06:21.302Z,12.08
2022-09-14T03:07:21.230Z,12.04
2022-09-14T03:08:21.217Z,11.95
2022-09-14T03:09:21.211Z,11.96
2022-09-14T03:10:21.205Z,12.04
2022-09-14T03:11:21.208Z,12.08
2022-09-14T03:12:21.201Z,12.10
2022-09-14T03:13:21.171Z,12.07
2022-09-14T03:14:21.163Z,12.10
2022-09-14T03:15:21.151Z,12.22
2022-09-14T03:16:21.269Z,12.17
2022-09-14T03:17:21.135Z,12.23
2022-09-14T03:18:21.132Z,12.22
2022-09-14T03:19:21.117Z,12.23
2022-09-14T03:20:21.104Z,12.28
2022-09-14T03:21:21.088Z,12.26
2022-09-14T03:22:21.183Z,12.22
2022-09-14T03:23:21.062Z,12.36
2022-09-14T03:24:21.057Z,12.33
2022-09-14T03:25:21.041Z,12.32
2022-09-14T03:26:21.028Z,12.35
2022-09-14T03:27:21.023Z,12.33
2022-09-14T03:28:21.044Z,12.35
2022-09-14T03:29:21.004Z,12.30
2022-09-14T03:30:21.015Z,12.29
2022-09-14T03:31:21.061Z,12.32
2022-09-14T03:32:20.972Z,12.29
2022-09-14T03:33:20.960Z,12.25
2022-09-14T03:34:20.960Z,12.18
2022-09-14T03:35:20.934Z,12.18
2022-09-14T03:36:20.948Z,12.22
2022-09-14T03:37:20.913Z,12.14
2022-09-14T03:38:20.917Z,12.13
2022-09-14T03:39:20.909Z,12.03
2022-09-14T03:40:22.011Z,11.95
2022-09-14T03:41:20.867Z,12.05
2022-09-14T03:42:20.865Z,11.96
2022-09-14T03:43:20.860Z,12.00
2022-09-14T03:44:20.865Z,11.96
2022-09-14T03:45:20.830Z,11.99
2022-09-14T03:46:20.845Z,11.96
2022-09-14T03:47:20.811Z,11.91
2022-09-14T03:48:20.833Z,11.84
2022-09-14T03:49:20.789Z,11.80
2022-09-14T03:50:20.795Z,11.88
2022-09-14T03:51:20.770Z,11.76
2022-09-14T03:52:20.747Z,11.74
2022-09-14T03:53:20.741Z,11.70
2022-09-14T03:54:20.752Z,11.77
2022-09-14T03:55:20.739Z,11.76
2022-09-14T03:56:20.738Z,11.84
2022-09-14T03:57:20.695Z,11.71
2022-09-14T03:58:20.686Z,11.71
2022-09-14T03:59:20.689Z,11.79
2022-09-14T04:00:20.669Z,11.73
2022-09-14T04:01:20.786Z,11.77
2022-09-14T04:02:20.678Z,11.71
2022-09-14T04:03:20.738Z,11.80
2022-09-14T04:04:20.632Z,11.87
2022-09-14T04:05:21.976Z,11.77
2022-09-14T04:06:20.618Z,11.77
2022-09-14T04:07:20.608Z,12.04
2022-09-14T04:08:20.588Z,12.07
2022-09-14T04:09:20.579Z,12.03
2022-09-14T04:10:20.675Z,12.05
2022-09-14T04:11:20.567Z,11.97
2022-09-14T04:12:20.547Z,12.00
2022-09-14T04:13:20.560Z,11.89
2022-09-14T04:14:20.516Z,11.89
2022-09-14T04:15:20.525Z,11.89
2022-09-14T04:16:20.640Z,11.91
2022-09-14T04:17:20.493Z,11.91
2022-09-14T04:18:20.478Z,11.96
2022-09-14T04:19:20.493Z,12.04
2022-09-14T04:20:20.473Z,12.08
2022-09-14T04:21:20.446Z,12.08
2022-09-14T04:22:20.437Z,12.08
2022-09-14T04:23:20.422Z,12.11
2022-09-14T04:24:20.667Z,12.10
2022-09-14T04:25:20.416Z,12.11
2022-09-14T04:26:20.498Z,12.11
2022-09-14T04:27:20.389Z,12.11
2022-09-14T04:28:20.961Z,12.04
2022-09-14T04:29:20.365Z,12.08
2022-09-14T04:30:20.362Z,12.04
2022-09-14T04:31:20.385Z,12.13
2022-09-14T04:32:34.071Z,12.15
2022-09-14T04:33:21.424Z,12.13
2022-09-14T04:35:30.750Z,12.10
2022-09-14T04:36:30.705Z,12.08
2022-09-14T04:37:30.667Z,12.11
2022-09-14T04:38:30.709Z,12.10
2022-09-14T04:39:30.647Z,12.08
2022-09-14T04:40:30.648Z,11.96
2022-09-14T04:41:30.586Z,11.85
2022-09-14T04:42:30.589Z,11.88
2022-09-14T04:43:30.555Z,11.84
2022-09-14T04:44:30.548Z,11.74
2022-09-14T04:45:30.556Z,11.84
2022-09-14T04:46:30.585Z,11.89
2022-09-14T04:47:30.522Z,11.84
2022-09-14T04:48:30.532Z,11.88
2022-09-14T04:49:30.501Z,11.91
2022-09-14T04:50:30.484Z,11.87
2022-09-14T04:51:30.509Z,11.89
2022-09-14T04:52:30.477Z,12.04
2022-09-14T04:53:30.445Z,11.97
2022-09-14T04:54:30.450Z,12.00
2022-09-14T04:55:30.470Z,12.11
2022-09-14T04:56:30.424Z,12.08
2022-09-14T04:57:30.447Z,12.13
2022-09-14T04:58:30.398Z,12.21
2022-09-14T04:59:30.410Z,12.17
2022-09-14T05:00:30.445Z,12.11
2022-09-14T05:01:30.429Z,12.13
2022-09-14T05:02:30.442Z,12.13
2022-09-14T05:03:30.336Z,12.08
2022-09-14T05:04:30.350Z,12.11
2022-09-14T05:05:30.351Z,12.10
2022-09-14T05:06:30.329Z,12.13
2022-09-14T05:07:30.312Z,12.10
2022-09-14T05:08:30.385Z,12.15
2022-09-14T05:09:30.286Z,12.10
2022-09-14T05:10:30.272Z,12.13
2022-09-14T05:11:30.282Z,12.22
2022-09-14T05:12:30.246Z,12.21
2022-09-14T05:13:30.276Z,12.15
2022-09-14T05:14:30.245Z,12.32
2022-09-14T05:15:30.261Z,12.32
2022-09-14T05:16:30.285Z,12.32
2022-09-14T05:17:30.216Z,12.36
2022-09-14T05:18:30.213Z,12.46
2022-09-14T05:19:30.172Z,12.50
2022-09-14T05:20:30.175Z,12.58
2022-09-14T05:21:30.166Z,12.59
2022-09-14T05:22:30.163Z,12.71
2022-09-14T05:23:30.136Z,12.69
2022-09-14T05:24:30.148Z,12.66
2022-09-14T05:25:30.107Z,12.65
2022-09-14T05:26:30.120Z,12.79
2022-09-14T05:27:30.111Z,12.83
2022-09-14T05:28:30.091Z,12.77
2022-09-14T05:29:30.145Z,12.88
2022-09-14T05:30:30.090Z,12.86
2022-09-14T05:31:30.218Z,12.83
2022-09-14T05:32:30.078Z,12.88
2022-09-14T05:33:30.034Z,12.88
2022-09-14T05:34:30.071Z,12.84
2022-09-14T05:35:30.010Z,12.96
2022-09-14T05:36:30.033Z,12.91
2022-09-14T05:37:30.029Z,12.91
2022-09-14T05:38:29.991Z,12.98
2022-09-14T05:39:29.981Z,13.09
2022-09-14T05:40:30.086Z,13.16
2022-09-14T05:41:29.949Z,13.14
2022-09-14T05:42:29.957Z,13.11
2022-09-14T05:43:29.940Z,13.19
2022-09-14T05:44:29.950Z,13.23
2022-09-14T05:45:29.964Z,13.23
2022-09-14T05:46:29.940Z,13.16
2022-09-14T05:47:29.941Z,13.23
2022-09-14T05:48:29.885Z,13.21
2022-09-14T05:49:29.864Z,13.30
2022-09-14T05:50:29.891Z,13.42
2022-09-14T05:51:29.843Z,13.23
2022-09-14T05:52:29.824Z,13.24
2022-09-14T05:53:29.844Z,13.17
2022-09-14T05:54:29.826Z,13.23
2022-09-14T05:55:29.793Z,13.26
2022-09-14T05:56:29.784Z,13.36
2022-09-14T05:57:29.778Z,13.38
2022-09-14T05:58:29.766Z,13.43
2022-09-14T05:59:29.775Z,13.38
2022-09-14T06:00:29.765Z,13.45
2022-09-14T06:01:29.956Z,13.47
2022-09-14T06:02:29.783Z,13.49
2022-09-14T06:03:29.736Z,13.46
2022-09-14T06:04:29.768Z,13.42
2022-09-14T06:05:29.746Z,13.39
2022-09-14T06:06:29.685Z,13.42
2022-09-14T06:07:29.676Z,13.57
2022-09-14T06:08:29.678Z,13.45
2022-09-14T06:09:33.104Z,13.54
2022-09-14T06:10:29.659Z,13.71
2022-09-14T06:11:29.630Z,13.58
2022-09-14T06:12:29.632Z,13.68
2022-09-14T06:13:29.599Z,13.72
2022-09-14T06:14:29.603Z,13.78
2022-09-14T06:15:29.632Z,13.76
2022-09-14T06:16:29.567Z,13.73
2022-09-14T06:17:29.584Z,13.83
2022-09-14T06:18:29.559Z,13.86
2022-09-14T06:19:29.551Z,14.01
2022-09-14T06:20:29.559Z,14.01
2022-09-14T06:21:29.515Z,13.97
2022-09-14T06:22:29.511Z,14.03
2022-09-14T06:23:29.498Z,14.03
2022-09-14T06:24:29.491Z,14.13
2022-09-14T06:25:29.517Z,14.19
2022-09-14T06:26:29.477Z,14.13
2022-09-14T06:27:29.511Z,14.16
2022-09-14T06:28:29.447Z,14.15
2022-09-14T06:29:29.451Z,14.22
2022-09-14T06:30:29.423Z,14.16
2022-09-14T06:31:29.455Z,14.30
2022-09-14T06:32:29.417Z,14.37
2022-09-14T06:33:29.412Z,14.38
2022-09-14T06:34:29.408Z,14.44
2022-09-14T06:35:29.387Z,14.49
2022-09-14T06:36:29.374Z,14.51
2022-09-14T06:37:29.350Z,14.45
2022-09-14T06:38:29.341Z,14.51
2022-09-14T06:39:29.326Z,14.59
2022-09-14T06:40:29.415Z,14.58
2022-09-14T06:41:29.365Z,14.71
2022-09-14T06:42:29.293Z,14.78
2022-09-14T06:43:29.316Z,14.83
2022-09-14T06:44:29.372Z,14.86
2022-09-14T06:45:29.280Z,14.96
2022-09-14T06:46:29.290Z,14.99
2022-09-14T06:47:29.326Z,14.90
2022-09-14T06:48:29.273Z,14.90
2022-09-14T06:49:29.267Z,14.87
2022-09-14T06:50:29.245Z,14.93
2022-09-14T06:51:29.198Z,14.90
2022-09-14T06:52:33.546Z,14.83
2022-09-14T06:53:29.301Z,14.90
2022-09-14T06:54:29.178Z,14.92
2022-09-14T06:55:29.265Z,14.90
2022-09-14T06:56:29.205Z,14.87
2022-09-14T06:57:29.168Z,14.83
2022-09-14T06:58:29.160Z,14.89
2022-09-14T06:59:37.079Z,14.83
2022-09-14T07:00:38.979Z,14.89
2022-09-14T07:01:29.201Z,14.82
2022-09-14T07:02:29.244Z,14.86
2022-09-14T07:03:29.232Z,14.86
2022-09-14T07:04:29.222Z,14.79
2022-09-14T07:05:29.157Z,14.67
2022-09-14T07:06:29.071Z,14.71
2022-09-14T07:07:29.087Z,14.69
2022-09-14T07:08:29.125Z,14.66
2022-09-14T07:09:29.027Z,14.67
2022-09-14T07:10:29.010Z,14.77
2022-09-14T07:11:29.029Z,14.71
2022-09-14T07:12:29.007Z,14.73
2022-09-14T07:13:29.000Z,14.71
2022-09-14T07:14:32.244Z,14.71
2022-09-14T07:15:28.979Z,14.85
2022-09-14T07:16:28.951Z,14.86
2022-09-14T07:17:28.944Z,14.85
2022-09-14T07:18:28.932Z,14.89
2022-09-14T07:19:28.990Z,14.95
2022-09-14T07:20:28.950Z,15.07
2022-09-14T07:21:28.964Z,15.11
2022-09-14T07:22:29.026Z,15.12
2022-09-14T07:23:28.907Z,15.23
2022-09-14T07:24:28.897Z,15.22
2022-09-14T07:25:28.863Z,15.30
2022-09-14T07:26:28.934Z,15.43
2022-09-14T07:27:28.899Z,15.44
2022-09-14T07:28:28.825Z,15.45
2022-09-14T07:29:28.829Z,15.40
2022-09-14T07:30:28.887Z,15.50
2022-09-14T07:31:28.878Z,15.65
2022-09-14T07:32:28.833Z,15.83
2022-09-14T07:33:28.837Z,15.93
2022-09-14T07:34:28.765Z,16.02
2022-09-14T07:35:28.813Z,16.00
2022-09-14T07:36:32.776Z,16.08
2022-09-14T07:37:29.778Z,16.18
2022-09-14T07:38:48.589Z,16.25
2022-09-14T07:39:29.767Z,16.36
2022-09-14T07:40:28.907Z,16.22
2022-09-14T07:41:28.789Z,16.17
2022-09-14T07:42:28.731Z,16.24
2022-09-14T07:43:28.695Z,16.29
2022-09-14T07:44:28.633Z,16.22
2022-09-14T07:45:28.644Z,16.16
2022-09-14T07:46:28.768Z,16.16
2022-09-14T07:47:28.633Z,16.26
2022-09-14T07:48:28.602Z,16.22
2022-09-14T07:49:28.617Z,16.39
2022-09-14T07:50:28.588Z,16.47
2022-09-14T07:51:28.625Z,16.54
2022-09-14T07:52:28.620Z,16.62
2022-09-14T07:53:28.640Z,16.47
2022-09-14T07:54:28.540Z,16.70
2022-09-14T07:55:28.559Z,16.72
2022-09-14T07:56:28.580Z,16.92
2022-09-14T07:57:52.216Z,16.98
2022-09-14T07:58:29.568Z,17.06
2022-09-14T07:59:36.136Z,17.06
2022-09-14T08:00:29.579Z,16.98
2022-09-14T08:01:28.539Z,16.95
2022-09-14T08:02:28.628Z,17.10
2022-09-14T08:03:28.497Z,17.16
2022-09-14T08:04:28.431Z,17.14
2022-09-14T08:05:28.428Z,16.94
2022-09-14T08:06:28.476Z,16.95
2022-09-14T08:07:28.417Z,16.88
2022-09-14T08:08:28.392Z,16.94
2022-09-14T08:09:28.384Z,17.02
2022-09-14T08:10:28.390Z,17.16
2022-09-14T08:11:28.395Z,17.28
2022-09-14T08:12:28.362Z,17.28
2022-09-14T08:13:28.462Z,17.24
2022-09-14T08:14:28.357Z,17.27
2022-09-14T08:15:28.777Z,17.34
2022-09-14T08:16:28.447Z,17.43
2022-09-14T08:17:28.294Z,17.39
2022-09-14T08:18:28.292Z,17.54
2022-09-14T08:19:28.456Z,17.56
2022-09-14T08:21:44.147Z,17.65
2022-09-14T08:22:40.956Z,17.52
2022-09-14T08:23:39.800Z,17.63
2022-09-14T08:24:39.778Z,17.56
2022-09-14T08:25:39.674Z,17.73
2022-09-14T08:26:39.660Z,17.93
2022-09-14T08:27:39.670Z,17.97
2022-09-14T08:28:39.697Z,17.93
2022-09-14T08:29:39.624Z,18.18
2022-09-14T08:30:39.666Z,18.23
2022-09-14T08:31:39.713Z,17.91
2022-09-14T08:32:39.611Z,18.06
2022-09-14T08:33:39.595Z,17.97
2022-09-14T08:34:39.587Z,17.75
2022-09-14T08:35:56.967Z,17.81
2022-09-14T08:36:40.584Z,18.06
2022-09-14T08:37:39.563Z,18.30
2022-09-14T08:38:39.561Z,18.51
2022-09-14T08:39:39.549Z,18.21
2022-09-14T08:40:39.604Z,18.33
2022-09-14T08:41:39.522Z,18.54
2022-09-14T08:42:39.496Z,18.51
2022-09-14T08:43:39.595Z,18.66
2022-09-14T08:44:39.502Z,18.89
2022-09-14T08:45:39.566Z,19.05
2022-09-14T08:46:39.535Z,19.08
2022-09-14T08:47:39.500Z,18.85
2022-09-14T08:51:02.915Z,18.81
2022-09-14T08:52:02.873Z,18.82
2022-09-14T08:53:02.800Z,18.96
2022-09-14T08:54:02.858Z,18.97
2022-09-14T08:55:02.754Z,18.88
2022-09-14T08:56:02.707Z,18.70
2022-09-14T08:57:02.741Z,18.66
2022-09-14T08:58:02.638Z,18.74
2022-09-14T08:59:02.638Z,18.89
2022-09-14T09:00:02.703Z,18.93
2022-09-14T09:01:02.746Z,18.96
2022-09-14T09:02:02.681Z,19.04
2022-09-14T09:03:02.685Z,18.98
2022-09-14T09:04:02.659Z,18.79
2022-09-14T09:05:02.565Z,18.67
2022-09-14T09:06:02.749Z,18.31
2022-09-14T09:07:02.645Z,18.30
2022-09-14T09:08:03.070Z,18.20
2022-09-14T09:09:02.544Z,17.97
2022-09-14T09:10:02.538Z,17.96
2022-09-14T09:11:02.512Z,17.72
2022-09-14T09:12:02.554Z,17.73
2022-09-14T09:13:02.537Z,17.73
2022-09-14T09:14:02.490Z,17.90
2022-09-14T09:15:02.464Z,18.06
2022-09-14T09:16:02.558Z,18.28
2022-09-14T09:17:02.439Z,18.18
2022-09-14T09:18:02.431Z,18.23
2022-09-14T09:19:02.432Z,18.42
2022-09-14T09:20:02.417Z,18.45
2022-09-14T09:21:02.415Z,18.54
2022-09-14T09:22:02.391Z,18.63
2022-09-14T09:23:02.431Z,18.81
2022-09-14T09:24:02.388Z,18.66
2022-09-14T09:25:02.379Z,18.74
2022-09-14T09:26:02.384Z,18.82
2022-09-14T09:27:02.384Z,18.85
2022-09-14T09:28:02.353Z,18.79
2022-09-14T09:29:02.369Z,18.76
2022-09-14T09:30:02.445Z,18.71
2022-09-14T09:31:02.353Z,18.64
2022-09-14T09:32:02.392Z,18.61
2022-09-14T09:33:02.275Z,18.43
2022-09-14T09:34:02.414Z,18.27
2022-09-14T09:35:02.276Z,18.17
2022-09-14T09:36:02.287Z,18.01
2022-09-14T09:37:02.347Z,18.13
2022-09-14T09:38:02.288Z,18.11
2022-09-14T09:39:05.161Z,18.27
2022-09-14T09:40:02.298Z,18.43
2022-09-14T09:41:02.207Z,18.48
2022-09-14T09:42:02.210Z,18.57
2022-09-14T09:43:02.257Z,18.61
2022-09-14T09:44:02.180Z,18.71
2022-09-14T09:45:03.841Z,18.86
2022-09-14T09:46:02.163Z,18.93
2022-09-14T09:47:02.294Z,19.05
2022-09-14T09:48:02.104Z,18.98
2022-09-14T09:49:02.105Z,18.63
2022-09-14T09:50:02.087Z,18.54
2022-09-14T09:51:02.071Z,18.57
2022-09-14T09:52:02.095Z,18.74
2022-09-14T09:53:06.564Z,18.94
2022-09-14T09:54:02.031Z,19.07
2022-09-14T09:55:02.048Z,19.13
2022-09-14T09:56:02.017Z,19.16
2022-09-14T09:57:02.008Z,19.13
2022-09-14T09:58:02.019Z,19.17
2022-09-14T09:59:01.993Z,19.12
2022-09-14T10:00:01.997Z,19.20
2022-09-14T10:01:02.078Z,19.05
2022-09-14T10:02:02.056Z,18.83
2022-09-14T10:03:01.945Z,18.74
2022-09-14T10:04:01.970Z,18.76
2022-09-14T10:05:01.972Z,18.76
2022-09-14T10:06:01.910Z,18.97
2022-09-14T10:07:01.911Z,19.15
2022-09-14T10:08:01.891Z,19.22
2022-09-14T10:09:01.879Z,19.27
2022-09-14T10:10:02.004Z,19.53
2022-09-14T10:11:01.894Z,19.57
2022-09-14T10:12:01.861Z,19.54
2022-09-14T10:13:01.900Z,19.60
2022-09-14T10:14:01.854Z,19.67
2022-09-14T10:15:01.850Z,19.70
2022-09-14T10:16:01.920Z,19.96
2022-09-14T10:17:01.794Z,19.94
2022-09-14T10:18:01.794Z,20.11
2022-09-14T10:19:01.778Z,20.17
2022-09-14T10:20:01.781Z,20.00
2022-09-14T10:21:01.763Z,20.09
2022-09-14T10:22:01.738Z,20.19
2022-09-14T10:23:01.730Z,20.34
2022-09-14T10:24:01.803Z,20.33
2022-09-14T10:25:01.708Z,20.22
2022-09-14T10:26:01.747Z,20.18
2022-09-14T10:27:01.686Z,20.07
2022-09-14T10:28:01.686Z,19.92
2022-09-14T10:29:01.802Z,19.94
2022-09-14T10:30:01.702Z,19.77
2022-09-14T10:31:01.778Z,19.78
2022-09-14T10:32:01.647Z,19.84
2022-09-14T10:33:01.661Z,19.74
2022-09-14T10:34:01.642Z,19.60
2022-09-14T10:35:01.626Z,19.74
2022-09-14T10:36:01.611Z,19.96
2022-09-14T10:37:01.628Z,20.00
2022-09-14T10:38:01.571Z,20.18
2022-09-14T10:39:01.615Z,20.27
2022-09-14T10:40:01.672Z,20.37
2022-09-14T10:41:01.542Z,20.30
2022-09-14T10:42:01.551Z,20.44
2022-09-14T10:43:01.588Z,20.52
2022-09-14T10:44:01.554Z,20.70
2022-09-14T10:45:01.558Z,20.88
2022-09-14T10:46:01.532Z,20.90
2022-09-14T10:47:04.723Z,20.93
2022-09-14T10:48:01.531Z,20.68
2022-09-14T10:49:01.442Z,20.17
2022-09-14T10:50:01.448Z,19.99
2022-09-14T10:51:01.426Z,20.11
2022-09-14T10:52:01.423Z,19.86
2022-09-14T10:53:01.465Z,19.96
2022-09-14T10:54:01.408Z,20.08
2022-09-14T10:55:01.389Z,19.96
2022-09-14T10:56:01.453Z,20.00
2022-09-14T10:57:01.372Z,19.87
2022-09-14T10:58:01.371Z,19.79
2022-09-14T10:59:01.347Z,19.78
2022-09-14T11:00:01.392Z,19.77
2022-09-14T11:01:01.322Z,19.90
2022-09-14T11:02:01.447Z,19.93
2022-09-14T11:03:01.427Z,19.60
2022-09-14T11:04:01.320Z,19.70
2022-09-14T11:05:01.293Z,19.71
2022-09-14T11:06:01.280Z,19.70
2022-09-14T11:07:01.320Z,19.87
2022-09-14T11:08:01.247Z,19.99
2022-09-14T11:09:01.256Z,20.19
2022-09-14T11:10:01.626Z,20.30
2022-09-14T11:11:01.221Z,20.49
2022-09-14T11:12:01.206Z,20.52
2022-09-14T11:13:01.203Z,20.36
2022-09-14T11:14:01.312Z,20.33
2022-09-14T11:15:01.223Z,20.36
2022-09-14T11:16:01.315Z,20.49
2022-09-14T11:17:01.184Z,20.58
2022-09-14T11:18:01.132Z,20.67
2022-09-14T11:19:01.128Z,20.58
2022-09-14T11:20:01.254Z,20.50
2022-09-14T11:21:01.194Z,20.41
2022-09-14T11:22:01.151Z,20.55
2022-09-14T11:23:01.086Z,20.70
2022-09-14T11:24:01.071Z,20.80
2022-09-14T11:25:01.111Z,20.97
2022-09-14T11:26:01.063Z,21.04
2022-09-14T11:27:01.069Z,20.90
2022-09-14T11:28:01.084Z,20.86
2022-09-14T11:29:01.039Z,20.71
2022-09-14T11:30:01.037Z,20.52
2022-09-14T11:31:01.138Z,20.65
2022-09-14T11:32:19.902Z,20.79
2022-09-14T11:33:01.979Z,20.88
2022-09-14T11:34:00.972Z,21.00
2022-09-14T11:35:01.011Z,20.98
2022-09-14T11:36:00.987Z,21.11
2022-09-14T11:37:00.951Z,21.28
2022-09-14T11:38:00.957Z,21.32
2022-09-14T11:39:06.062Z,21.26
2022-09-14T11:40:01.966Z,21.20
2022-09-14T11:41:00.892Z,21.16
2022-09-14T11:42:00.881Z,21.26
2022-09-14T11:43:00.980Z,21.10
2022-09-14T11:44:00.879Z,20.82
2022-09-14T11:45:00.850Z,20.83
2022-09-14T11:46:00.867Z,20.86
2022-09-14T11:47:01.136Z,20.86
2022-09-14T11:48:00.821Z,20.73
2022-09-14T11:49:00.823Z,20.55
2022-09-14T11:50:00.833Z,20.29
2022-09-14T11:51:00.802Z,20.23
2022-09-14T11:52:00.895Z,20.14
2022-09-14T11:53:00.789Z,19.90
2022-09-14T11:54:00.815Z,19.96
2022-09-14T11:55:00.755Z,19.93
2022-09-14T11:56:00.770Z,20.00
2022-09-14T11:57:00.732Z,19.99
2022-09-14T11:58:00.735Z,19.90
2022-09-14T11:59:00.704Z,19.96
2022-09-14T12:00:00.704Z,19.94
2022-09-14T12:01:00.691Z,19.93
2022-09-14T12:02:00.674Z,19.99
2022-09-14T12:03:00.809Z,19.94
2022-09-14T12:04:00.701Z,19.93
2022-09-14T12:05:00.638Z,20.00
2022-09-14T12:06:00.627Z,20.18
2022-09-14T12:07:00.646Z,20.19
2022-09-14T12:08:00.641Z,20.26
2022-09-14T12:09:00.628Z,20.46
2022-09-14T12:10:00.601Z,20.53
2022-09-14T12:11:00.582Z,20.50
2022-09-14T12:12:00.569Z,20.41
2022-09-14T12:13:00.553Z,20.55
2022-09-14T12:14:00.610Z,20.68
2022-09-14T12:15:00.535Z,20.58
2022-09-14T12:16:00.557Z,20.52
2022-09-14T12:17:00.579Z,20.46
2022-09-14T12:18:00.526Z,20.37
2022-09-14T12:19:00.508Z,20.41
2022-09-14T12:20:00.477Z,20.56
2022-09-14T12:21:00.544Z,20.56
2022-09-14T12:22:00.470Z,20.67
2022-09-14T12:23:00.496Z,20.74
2022-09-14T12:24:00.505Z,20.74
2022-09-14T12:25:00.440Z,20.68
2022-09-14T12:26:00.464Z,20.56
2022-09-14T12:27:00.410Z,20.33
2022-09-14T12:28:00.401Z,20.33
2022-09-14T12:29:00.400Z,20.36
2022-09-14T12:30:00.377Z,20.15
2022-09-14T12:31:00.523Z,20.32
2022-09-14T12:32:00.361Z,20.64
2022-09-14T12:33:00.354Z,20.71
2022-09-14T12:34:00.346Z,20.90
2022-09-14T12:35:00.348Z,20.86
2022-09-14T12:36:00.307Z,20.74
2022-09-14T12:37:00.299Z,20.92
2022-09-14T12:38:00.287Z,20.79
2022-09-14T12:39:00.277Z,20.95
2022-09-14T12:40:00.467Z,21.11
2022-09-14T12:41:00.280Z,21.19
2022-09-14T12:42:00.249Z,21.10
2022-09-14T12:43:00.235Z,21.11
2022-09-14T12:44:00.235Z,21.25
2022-09-14T12:45:00.220Z,21.29
2022-09-14T12:46:00.354Z,21.56
2022-09-14T12:47:00.191Z,21.84
2022-09-14T12:48:00.179Z,22.07
2022-09-14T12:49:00.183Z,22.22
2022-09-14T12:50:00.173Z,22.30
2022-09-14T12:51:00.157Z,22.16
2022-09-14T12:52:00.187Z,22.16
2022-09-14T12:53:00.135Z,21.88
2022-09-14T12:54:00.119Z,21.94
2022-09-14T12:55:00.121Z,21.91
2022-09-14T12:56:00.139Z,21.65
2022-09-14T12:57:00.116Z,21.58